Time;durP1;ratioP1;P1;durP2;ratioP2;P2;SDS_P1;SDS_P2;PMS_P1;PMS_P2;Temp;Humidity;BMP_temperature;BMP_pressure;BME280_temperature;BME280_humidity;BME280_pressure;Samples;Min_cycle;Max_cycle;Signal;HPM_P1;HPM_P2
2022/03/20 00:00:03;;;;;;;77.33;20.97;;;0.80;39.60;;;;;;5052302;28;19916;-86
2022/03/20 00:02:32;;;;;;;52.33;17.90;;;0.80;39.50;;;;;;5036215;28;20062;-86
2022/03/20 00:05:00;;;;;;;41.10;15.97;;;0.70;39.70;;;;;;5035951;28;20164;-86
2022/03/20 00:07:26;;;;;;;40.10;15.33;;;0.70;39.80;;;;;;5035902;28;20052;-86
2022/03/20 00:09:52;;;;;;;43.55;15.35;;;0.70;39.90;;;;;;5035924;28;20082;-86
2022/03/20 00:12:18;;;;;;;37.42;15.18;;;0.70;39.90;;;;;;5035607;28;20029;-86
2022/03/20 00:14:44;;;;;;;34.75;14.15;;;0.70;39.90;;;;;;5054210;28;20136;-86
2022/03/20 00:17:09;;;;;;;;;;;0.70;40.00;;;;;;5036353;28;20037;-86
2022/03/20 00:19:35;;;;;;;39.97;15.40;;;0.80;40.00;;;;;;5036159;28;20015;-86
2022/03/20 00:22:01;;;;;;;41.80;15.63;;;0.80;39.80;;;;;;5036006;28;20017;-85
2022/03/20 00:24:27;;;;;;;35.10;14.90;;;0.80;39.90;;;;;;5035002;28;20025;-85
2022/03/20 00:26:56;;;;;;;37.10;14.82;;;0.70;40.00;;;;;;5035631;28;20021;-85
2022/03/20 00:29:24;;;;;;;42.43;16.20;;;0.70;40.10;;;;;;5035803;28;20449;-84
2022/03/20 00:31:49;;;;;;;36.73;14.83;;;0.70;40.20;;;;;;5035422;28;20025;-85
2022/03/20 00:34:15;;;;;;;47.17;16.88;;;0.70;40.30;;;;;;5035322;28;20044;-85
2022/03/20 00:36:40;;;;;;;38.78;15.82;;;0.70;40.30;;;;;;5053620;28;20046;-85
2022/03/20 00:39:06;;;;;;;35.85;13.48;;;0.70;40.40;;;;;;5035787;28;20025;-85
2022/03/20 00:41:31;;;;;;;35.00;14.52;;;0.70;40.40;;;;;;5035190;28;20067;-86
2022/03/20 00:43:58;;;;;;;46.70;15.80;;;0.70;40.30;;;;;;5035826;28;20040;-86
2022/03/20 00:46:24;;;;;;;37.40;15.13;;;0.70;40.40;;;;;;5053340;28;20028;-86
2022/03/20 00:48:50;;;;;;;36.22;15.25;;;0.60;40.40;;;;;;5053426;28;20029;-86
2022/03/20 00:51:16;;;;;;;36.80;14.43;;;0.60;40.60;;;;;;5035445;28;20123;-86
2022/03/20 00:53:41;;;;;;;36.85;14.30;;;0.50;40.60;;;;;;5035616;28;20424;-85
2022/03/20 00:56:07;;;;;;;35.47;14.95;;;0.50;40.60;;;;;;5053457;28;20274;-85
2022/03/20 00:58:33;;;;;;;35.03;14.68;;;0.50;40.70;;;;;;5034950;28;20067;-85
2022/03/20 01:00:59;;;;;;;41.50;16.25;;;0.50;40.70;;;;;;5034129;28;20025;-86
2022/03/20 01:03:25;;;;;;;38.33;16.27;;;0.40;40.80;;;;;;5053279;28;20079;-86
2022/03/20 01:05:50;;;;;;;35.92;15.68;;;0.40;40.70;;;;;;5035294;28;20025;-86
2022/03/20 01:08:17;;;;;;;32.83;13.73;;;0.40;40.80;;;;;;5034955;28;20048;-86
2022/03/20 01:10:43;;;;;;;35.37;14.20;;;0.40;40.90;;;;;;5035838;28;20078;-86
2022/03/20 01:13:09;;;;;;;38.58;14.70;;;0.40;40.90;;;;;;5037664;28;20028;-87
2022/03/20 01:15:34;;;;;;;35.65;13.52;;;0.40;40.90;;;;;;5037803;28;20028;-87
2022/03/20 01:18:00;;;;;;;34.03;15.23;;;0.40;41.00;;;;;;5037286;28;20024;-87
2022/03/20 01:20:25;;;;;;;38.47;15.18;;;0.40;41.00;;;;;;5037436;28;20060;-87
2022/03/20 01:22:51;;;;;;;35.35;14.75;;;0.30;41.00;;;;;;5037031;28;20350;-87
2022/03/20 01:25:18;;;;;;;40.47;15.80;;;0.30;41.00;;;;;;5037386;28;20085;-88
2022/03/20 01:27:44;;;;;;;38.20;15.80;;;0.30;41.00;;;;;;5055385;28;20041;-88
2022/03/20 01:30:09;;;;;;;40.85;16.98;;;0.30;41.20;;;;;;5036658;28;20063;-88
2022/03/20 01:32:35;;;;;;;42.15;15.90;;;0.20;41.30;;;;;;5037277;28;20033;-88
2022/03/20 01:35:01;;;;;;;42.28;15.85;;;0.20;41.30;;;;;;5036870;28;20077;-88
2022/03/20 01:37:26;;;;;;;41.10;16.38;;;0.20;41.30;;;;;;5037076;28;20474;-88
2022/03/20 01:39:53;;;;;;;39.13;14.43;;;0.10;41.30;;;;;;5037423;28;20025;-88
2022/03/20 01:42:19;;;;;;;39.53;17.50;;;0.10;41.40;;;;;;5037097;28;20390;-88
2022/03/20 01:44:46;;;;;;;39.40;15.40;;;0.10;41.40;;;;;;5037100;28;20021;-88
2022/03/20 01:47:12;;;;;;;36.77;15.90;;;0.10;41.40;;;;;;5036775;28;20104;-87
2022/03/20 01:49:37;;;;;;;36.60;15.18;;;0.00;41.60;;;;;;5037847;28;20118;-88
2022/03/20 01:52:23;;;;;;;44.10;16.67;;;0.00;41.70;;;;;;5041223;28;20021;-88
2022/03/20 01:54:49;;;;;;;37.80;14.87;;;0.00;41.70;;;;;;5041269;28;20029;-87
2022/03/20 01:57:20;;;;;;;34.72;15.15;;;0.00;41.70;;;;;;5058777;28;20013;-87
2022/03/20 01:59:47;;;;;;;38.93;15.53;;;0.00;41.70;;;;;;5041107;28;20044;-88
2022/03/20 02:02:13;;;;;;;35.37;14.03;;;0.00;41.70;;;;;;5040735;28;20028;-88
2022/03/20 02:04:39;;;;;;;;;;;0.00;41.80;;;;;;5041214;28;20025;-88
2022/03/20 02:07:06;;;;;;;27.43;11.37;;;0.00;41.90;;;;;;5058740;28;19995;-88
2022/03/20 02:09:32;;;;;;;35.83;14.40;;;0.00;41.80;;;;;;5039472;28;20089;-88
2022/03/20 02:11:58;;;;;;;;;;;0.00;41.90;;;;;;5041161;28;20028;-87
2022/03/20 02:14:25;;;;;;;34.13;14.20;;;0.00;41.90;;;;;;5040095;28;20376;-88
2022/03/20 02:16:51;;;;;;;39.07;16.33;;;0.10;41.90;;;;;;5040031;28;20029;-86
2022/03/20 02:19:17;;;;;;;35.88;14.40;;;0.00;41.90;;;;;;5040553;28;20032;-88
2022/03/20 02:21:44;;;;;;;41.42;16.40;;;0.00;41.90;;;;;;5040423;28;20771;-87
2022/03/20 02:24:29;;;;;;;41.23;15.73;;;0.00;42.10;;;;;;5040310;28;20030;-88
2022/03/20 02:27:11;;;;;;;33.80;15.10;;;-3276.70;42.40;;;;;;5040098;28;20075;-88
2022/03/20 02:29:39;;;;;;;33.67;15.53;;;-3276.50;42.40;;;;;;5040271;28;20377;-88
2022/03/20 02:32:06;;;;;;;40.50;16.57;;;-3276.40;42.40;;;;;;5039820;28;20021;-87
2022/03/20 02:34:32;;;;;;;41.83;15.53;;;-3276.30;42.60;;;;;;5039142;28;20045;-87
2022/03/20 02:36:59;;;;;;;36.83;16.70;;;-3276.20;42.70;;;;;;5040245;28;20119;-86
2022/03/20 02:39:25;;;;;;;38.87;16.67;;;-3276.20;42.90;;;;;;5040837;28;20393;-87
2022/03/20 02:41:51;;;;;;;42.63;16.98;;;-3276.10;43.00;;;;;;5040124;28;20075;-86
2022/03/20 02:44:18;;;;;;;40.20;15.70;;;-3276.00;43.20;;;;;;5039910;28;20446;-86
2022/03/20 02:46:43;;;;;;;40.03;15.60;;;-3275.90;43.30;;;;;;5039416;28;20049;-87
2022/03/20 02:49:10;;;;;;;36.47;14.55;;;-3275.80;43.40;;;;;;5039238;28;20032;-86
2022/03/20 02:51:36;;;;;;;41.00;15.50;;;-3275.70;43.50;;;;;;5038434;28;20021;-86
2022/03/20 02:54:02;;;;;;;;;;;-3275.70;43.60;;;;;;5039561;28;20024;-86
2022/03/20 02:56:28;;;;;;;37.17;15.93;;;-3275.60;43.60;;;;;;5039219;28;19908;-87
2022/03/20 02:58:54;;;;;;;36.90;15.63;;;-3275.50;43.40;;;;;;5039029;28;20025;-87
2022/03/20 03:01:19;;;;;;;45.25;17.25;;;-3275.50;43.70;;;;;;5039637;28;20183;-87
2022/03/20 03:03:45;;;;;;;37.58;16.67;;;-3275.40;43.90;;;;;;5056624;28;20029;-88
2022/03/20 03:06:12;;;;;;;44.55;17.38;;;-3275.30;44.10;;;;;;5039115;28;20025;-87
2022/03/20 03:11:22;;;;;;;39.90;17.23;;;-3275.20;44.30;;;;;;5057174;28;20098;-88
2022/03/20 03:13:47;;;;;;;43.20;17.45;;;-3275.20;44.30;;;;;;5039351;28;20120;-87
2022/03/20 03:16:14;;;;;;;37.67;16.23;;;-3275.20;44.40;;;;;;5038920;28;20021;-87
2022/03/20 03:18:46;;;;;;;38.57;15.87;;;-3275.10;44.60;;;;;;5038867;28;20454;-86
2022/03/20 03:21:16;;;;;;;47.90;16.93;;;-3275.00;44.70;;;;;;5038816;28;20025;-87
2022/03/20 03:23:43;;;;;;;41.80;17.33;;;-3275.00;44.80;;;;;;5038901;28;20025;-87
2022/03/20 03:26:10;;;;;;;48.93;17.77;;;-3275.00;44.80;;;;;;5039153;28;20013;-87
2022/03/20 03:28:36;;;;;;;54.83;19.93;;;-3275.00;45.00;;;;;;5039360;28;20021;-87
2022/03/20 03:31:07;;;;;;;58.00;19.50;;;-3274.90;45.10;;;;;;5038283;28;20021;-88
2022/03/20 03:33:34;;;;;;;34.57;15.73;;;-3274.90;45.40;;;;;;5037596;28;20123;-88
2022/03/20 03:36:01;;;;;;;39.40;15.33;;;-3274.90;45.70;;;;;;5038536;28;20021;-87
2022/03/20 03:38:34;;;;;;;40.33;15.37;;;-3275.00;45.80;;;;;;5038982;28;20024;-88
2022/03/20 03:41:00;;;;;;;43.43;17.03;;;-3275.10;45.90;;;;;;5039095;28;20478;-86
2022/03/20 03:43:26;;;;;;;;;;;-3275.20;46.10;;;;;;5039351;28;20079;-88
2022/03/20 03:45:53;;;;;;;40.23;16.10;;;-3275.20;46.10;;;;;;5039074;28;19908;-88
2022/03/20 03:48:19;;;;;;;50.07;17.20;;;-3275.30;45.90;;;;;;5038560;28;20025;-87
2022/03/20 03:50:47;;;;;;;51.40;17.53;;;-3275.30;45.80;;;;;;5038334;28;20036;-86
2022/03/20 03:53:13;;;;;;;41.60;17.43;;;-3275.30;45.80;;;;;;5038372;28;20033;-87
2022/03/20 03:55:43;;;;;;;37.40;15.87;;;-3275.30;45.80;;;;;;5038123;28;20021;-87
2022/03/20 03:58:10;;;;;;;39.67;17.23;;;-3275.30;45.80;;;;;;5038011;28;20059;-87
2022/03/20 04:00:36;;;;;;;36.73;17.13;;;-3275.30;45.80;;;;;;5038017;28;20386;-89
2022/03/20 04:03:02;;;;;;;35.35;16.15;;;-3275.30;45.90;;;;;;5038019;28;20029;-88
2022/03/20 04:05:28;;;;;;;;;;;-3275.30;45.90;;;;;;5038331;28;20032;-88
2022/03/20 04:07:54;;;;;;;34.50;15.50;;;-3275.20;45.90;;;;;;5037347;28;20273;-87
2022/03/20 04:10:21;;;;;;;42.17;17.67;;;-3275.20;45.60;;;;;;5036982;28;20021;-87
2022/03/20 04:12:47;;;;;;;44.37;16.30;;;-3275.10;45.70;;;;;;5037302;28;20187;-88
2022/03/20 04:15:14;;;;;;;44.60;16.98;;;-3275.00;45.90;;;;;;5038239;28;20493;-86
2022/03/20 04:17:40;;;;;;;38.20;14.83;;;-3275.00;46.00;;;;;;5038023;28;20021;-87
2022/03/20 04:20:12;;;;;;;36.47;16.43;;;-3275.00;46.10;;;;;;5038023;28;20438;-87
2022/03/20 04:25:42;;;;;;;44.77;16.80;;;-3275.00;46.10;;;;;;5028270;28;20052;-87
2022/03/20 04:28:09;;;;;;;38.92;16.27;;;-3275.00;46.10;;;;;;5037635;28;20017;-87
2022/03/20 04:30:35;;;;;;;40.87;18.03;;;-3275.00;46.10;;;;;;5037659;28;20021;-87
2022/03/20 04:33:00;;;;;;;;;;;-3275.00;46.10;;;;;;5037528;28;20056;-87
2022/03/20 04:35:41;;;;;;;40.90;15.83;;;-3275.00;46.20;;;;;;5037525;28;20273;-88
2022/03/20 04:45:11;;;;;;;;;;;;;;;;;;;;;
2022/03/20 04:59:20;;;;;;;40.77;16.70;;;-3274.80;46.30;;;;;;5055211;28;20048;-87
2022/03/20 05:01:46;;;;;;;37.65;16.00;;;-3274.90;46.30;;;;;;5037394;28;20025;-86
2022/03/20 05:04:15;;;;;;;41.47;16.92;;;-3274.90;46.40;;;;;;5037610;28;20025;-86
2022/03/20 05:06:43;;;;;;;37.90;15.73;;;-3274.90;46.40;;;;;;5037101;28;20061;-88
2022/03/20 05:14:37;;;;;;;41.20;16.60;;;-3275.00;46.60;;;;;;5055079;28;20116;-88
2022/03/20 05:17:07;;;;;;;41.88;15.55;;;-3275.00;46.60;;;;;;5037168;28;20041;-88
2022/03/20 05:19:37;;;;;;;38.83;16.10;;;-3275.00;46.80;;;;;;5037364;28;20082;-87
2022/03/20 05:22:05;;;;;;;35.93;14.23;;;-3275.10;46.90;;;;;;5037401;28;20029;-88
2022/03/20 05:24:33;;;;;;;41.73;16.37;;;-3275.20;47.10;;;;;;5038628;28;20025;-88
2022/03/20 05:26:59;;;;;;;36.10;14.87;;;-3275.30;47.10;;;;;;5041500;28;20048;-87
2022/03/20 05:29:24;;;;;;;46.58;16.80;;;-3275.30;47.30;;;;;;5041612;28;20043;-87
2022/03/20 05:31:52;;;;;;;38.80;16.08;;;-3275.40;47.20;;;;;;5040140;28;20166;-88
2022/03/20 05:34:17;;;;;;;44.50;16.63;;;-3275.50;47.20;;;;;;5058624;28;20051;-87
2022/03/20 05:36:43;;;;;;;43.13;17.52;;;-3275.50;47.20;;;;;;5041110;28;20025;-87
2022/03/20 05:39:09;;;;;;;40.20;15.45;;;-3275.60;47.30;;;;;;5040977;28;20055;-87
2022/03/20 05:41:46;;;;;;;43.83;16.40;;;-3275.70;47.40;;;;;;5040831;28;20021;-88
2022/03/20 05:44:16;;;;;;;39.70;14.97;;;-3275.80;47.60;;;;;;5040968;28;20056;-88
2022/03/20 05:46:48;;;;;;;39.50;13.57;;;-3275.90;47.80;;;;;;5041057;28;20047;-86
2022/03/20 05:49:15;;;;;;;35.13;14.50;;;-3276.00;47.90;;;;;;5040514;28;20100;-87
2022/03/20 05:51:40;;;;;;;45.17;16.83;;;-3276.10;47.90;;;;;;5041065;28;20061;-87
2022/03/20 05:54:07;;;;;;;25.45;10.60;;;-3276.20;47.90;;;;;;5038857;28;20064;-88
2022/03/20 05:59:17;;;;;;;32.57;9.33;;;-3276.40;47.90;;;;;;5058511;28;20084;-87
2022/03/20 06:01:43;;;;;;;38.38;15.65;;;-3276.60;47.70;;;;;;5040421;28;20025;-87
2022/03/20 06:04:10;;;;;;;39.72;13.13;;;-3276.60;47.60;;;;;;5040292;28;20032;-87
2022/03/20 06:06:36;;;;;;;39.50;16.80;;;-3276.70;47.50;;;;;;5040541;28;20094;-88
2022/03/20 06:09:02;;;;;;;;;;;0.00;47.30;;;;;;5040755;28;20009;-87
2022/03/20 06:11:28;;;;;;;37.77;15.03;;;0.10;47.20;;;;;;5040604;28;20250;-86
2022/03/20 06:13:53;;;;;;;42.30;17.52;;;0.10;46.90;;;;;;5039555;28;20387;-87
2022/03/20 06:16:21;;;;;;;32.15;14.27;;;0.20;46.80;;;;;;5040504;28;20424;-86
2022/03/20 06:18:47;;;;;;;41.27;15.73;;;0.30;46.70;;;;;;5041001;28;20020;-86
2022/03/20 06:21:13;;;;;;;35.75;16.52;;;0.40;46.50;;;;;;5040345;28;20036;-87
2022/03/20 06:23:39;;;;;;;39.28;17.08;;;0.50;46.40;;;;;;5040230;28;20116;-86
2022/03/20 06:26:06;;;;;;;44.65;17.35;;;0.60;46.30;;;;;;5040300;28;20123;-87
2022/03/20 06:28:32;;;;;;;48.60;18.10;;;0.70;46.20;;;;;;5040314;28;20103;-87
2022/03/20 06:30:59;;;;;;;30.80;12.47;;;0.80;46.10;;;;;;5040162;28;20017;-86
2022/03/20 06:33:27;;;;;;;40.08;15.85;;;0.90;45.90;;;;;;5039584;28;20124;-88
2022/03/20 06:35:54;;;;;;;41.20;16.17;;;1.00;45.80;;;;;;5040098;28;20028;-88
2022/03/20 06:38:21;;;;;;;40.33;17.80;;;1.10;45.60;;;;;;5040248;28;20025;-88
2022/03/20 06:40:46;;;;;;;38.30;16.80;;;1.20;45.50;;;;;;5040364;28;20018;-87
2022/03/20 06:43:13;;;;;;;44.00;18.67;;;1.30;45.40;;;;;;5039988;28;20028;-87
2022/03/20 06:45:41;;;;;;;41.03;17.40;;;1.40;45.20;;;;;;5040209;28;20094;-87
2022/03/20 06:48:07;;;;;;;31.97;14.00;;;1.50;45.00;;;;;;5039157;28;20021;-87
2022/03/20 06:50:33;;;;;;;;;;;1.60;44.90;;;;;;5039514;28;20024;-88
2022/03/20 06:53:02;;;;;;;42.40;17.40;;;1.70;44.70;;;;;;5039625;28;19909;-88
2022/03/20 06:55:30;;;;;;;38.90;15.77;;;1.80;44.40;;;;;;5039643;28;20040;-87
2022/03/20 06:57:55;;;;;;;34.17;16.07;;;1.80;44.40;;;;;;5039420;28;20082;-87
2022/03/20 07:00:22;;;;;;;41.28;17.73;;;1.90;44.20;;;;;;5039544;28;20029;-87
2022/03/20 07:02:47;;;;;;;43.57;20.03;;;2.00;44.20;;;;;;5039561;28;20112;-87
2022/03/20 07:05:13;;;;;;;38.20;18.08;;;2.10;44.10;;;;;;5039990;28;20112;-87
2022/03/20 07:07:40;;;;;;;43.85;18.35;;;2.20;44.00;;;;;;5039336;28;20074;-87
2022/03/20 07:10:07;;;;;;;48.47;20.30;;;2.30;43.90;;;;;;5039916;28;20390;-87
2022/03/20 07:12:33;;;;;;;42.70;17.63;;;2.30;43.80;;;;;;5039680;28;20036;-88
2022/03/20 07:14:59;;;;;;;36.33;18.05;;;2.40;43.60;;;;;;5039231;28;20021;-88
2022/03/20 07:17:25;;;;;;;36.72;16.58;;;2.50;43.50;;;;;;5039312;28;20017;-88
2022/03/20 07:19:50;;;;;;;;;;;2.60;43.40;;;;;;5039858;28;20025;-88
2022/03/20 07:22:19;;;;;;;27.63;12.73;;;2.70;43.30;;;;;;5039077;28;20022;-88
2022/03/20 07:24:45;;;;;;;39.13;17.73;;;2.80;43.00;;;;;;5039044;28;20029;-88
2022/03/20 07:29:56;;;;;;;33.60;13.93;;;2.90;42.90;;;;;;5057261;28;19912;-87
2022/03/20 07:32:24;;;;;;;42.17;18.07;;;3.00;42.60;;;;;;5039085;28;20109;-87
2022/03/20 07:34:50;;;;;;;40.17;15.70;;;3.00;42.70;;;;;;5038668;28;20072;-86
2022/03/20 07:37:17;;;;;;;36.70;17.00;;;3.00;42.70;;;;;;5038779;28;20025;-87
2022/03/20 07:39:46;;;;;;;20.37;9.00;;;3.10;42.70;;;;;;5057080;28;20528;-87
2022/03/20 07:42:12;;;;;;;38.07;18.53;;;3.20;42.60;;;;;;5038593;28;20017;-88
2022/03/20 07:44:50;;;;;;;42.97;18.20;;;3.30;42.40;;;;;;5038803;28;20104;-88
2022/03/20 07:47:18;;;;;;;36.73;17.07;;;3.40;42.30;;;;;;5038119;28;20025;-88
2022/03/20 07:49:43;;;;;;;41.27;18.93;;;3.50;42.20;;;;;;5039151;28;20021;-88
2022/03/20 07:52:09;;;;;;;39.38;18.33;;;3.60;42.10;;;;;;5038806;28;20048;-87
2022/03/20 07:54:38;;;;;;;38.63;17.05;;;3.70;42.10;;;;;;5040231;28;20123;-88
2022/03/20 07:57:04;;;;;;;36.87;16.07;;;3.80;41.90;;;;;;5039048;28;20060;-88
2022/03/20 07:59:30;;;;;;;;;;;3.90;41.80;;;;;;5039500;28;20059;-88
2022/03/20 08:01:55;;;;;;;25.40;11.90;;;4.00;41.80;;;;;;5038715;28;20214;-88
2022/03/20 08:04:48;;;;;;;;;;;;;;;;;;;;;
2022/03/20 08:10:43;;;;;;;36.60;17.20;;;4.30;41.30;;;;;;5000073;28;20032;-88
2022/03/20 08:13:10;;;;;;;39.97;16.30;;;4.40;41.10;;;;;;5039288;28;20108;-89
2022/03/20 08:15:36;;;;;;;32.93;15.23;;;4.50;41.00;;;;;;5039088;28;20028;-88
2022/03/20 08:18:02;;;;;;;31.37;13.87;;;4.60;40.70;;;;;;5056025;28;20025;-88
2022/03/20 08:20:29;;;;;;;31.47;14.47;;;4.70;40.30;;;;;;5055824;28;20389;-88
2022/03/20 08:22:56;;;;;;;28.52;13.68;;;4.90;40.10;;;;;;5039060;28;20025;-88
2022/03/20 08:25:26;;;;;;;38.47;16.10;;;5.00;39.80;;;;;;5037698;28;20025;-86
2022/03/20 08:27:53;;;;;;;37.90;18.10;;;5.10;39.50;;;;;;5037820;28;20048;-88
2022/03/20 08:30:20;;;;;;;31.97;14.83;;;5.30;39.30;;;;;;5038896;28;20021;-87
2022/03/20 08:32:47;;;;;;;33.47;16.00;;;5.30;39.10;;;;;;5038190;28;20031;-87
2022/03/20 08:35:15;;;;;;;36.93;16.53;;;5.40;38.90;;;;;;5038337;28;20508;-89
2022/03/20 08:37:43;;;;;;;36.57;16.13;;;5.50;38.80;;;;;;5037986;28;20100;-89
2022/03/20 08:40:15;;;;;;;37.07;16.40;;;5.60;38.80;;;;;;5037956;28;20017;-87
2022/03/20 08:42:44;;;;;;;33.20;16.17;;;5.80;38.60;;;;;;5037434;28;20021;-86
2022/03/20 08:45:11;;;;;;;35.40;16.07;;;5.80;38.30;;;;;;5037986;28;20120;-87
2022/03/20 08:47:40;;;;;;;29.40;14.47;;;6.00;38.20;;;;;;5038324;28;20031;-86
2022/03/20 08:50:07;;;;;;;34.63;15.67;;;6.10;37.90;;;;;;5038121;28;20097;-87
2022/03/20 08:52:33;;;;;;;29.37;12.90;;;6.20;37.50;;;;;;5037358;28;20115;-88
2022/03/20 08:54:59;;;;;;;21.08;9.30;;;6.30;37.50;;;;;;5037893;28;20055;-88
2022/03/20 08:57:25;;;;;;;37.42;15.20;;;6.40;37.00;;;;;;5038471;28;20024;-89
2022/03/20 08:59:52;;;;;;;34.60;15.37;;;6.40;36.90;;;;;;5037893;28;20029;-89
2022/03/20 09:02:18;;;;;;;31.20;14.60;;;6.50;36.90;;;;;;5037941;28;20032;-87
2022/03/20 09:04:43;;;;;;;30.40;14.00;;;6.60;36.70;;;;;;5036650;28;20421;-89
2022/03/20 09:07:09;;;;;;;34.92;15.73;;;6.80;36.40;;;;;;5037392;28;20029;-88
2022/03/20 09:09:34;;;;;;;23.35;10.38;;;6.80;35.90;;;;;;5037504;28;20032;-88
2022/03/20 09:12:01;;;;;;;31.50;14.77;;;6.90;36.00;;;;;;5037840;28;20037;-87
2022/03/20 09:14:27;;;;;;;32.40;14.93;;;7.00;35.80;;;;;;5037209;28;20084;-88
2022/03/20 09:19:37;;;;;;;32.93;14.67;;;7.20;35.30;;;;;;5055696;28;20040;-89
2022/03/20 09:22:06;;;;;;;;;;;7.30;35.10;;;;;;5055842;28;20435;-88
2022/03/20 09:24:32;;;;;;;26.97;13.93;;;7.30;35.30;;;;;;5037660;28;19904;-88
2022/03/20 09:27:00;;;;;;;28.97;14.13;;;7.50;35.00;;;;;;5037279;28;20021;-89
2022/03/20 09:29:26;;;;;;;32.40;15.73;;;7.60;34.70;;;;;;5037459;28;20504;-89
2022/03/20 09:31:51;;;;;;;29.55;13.65;;;7.70;34.80;;;;;;5037708;28;20021;-89
2022/03/20 09:34:17;;;;;;;24.67;11.95;;;7.80;34.80;;;;;;5037323;28;20772;-90
2022/03/20 09:36:43;;;;;;;29.80;14.90;;;8.00;34.40;;;;;;5038342;28;20025;-91
2022/03/20 09:39:08;;;;;;;26.23;12.95;;;8.20;34.10;;;;;;5055731;28;20028;-90
2022/03/20 09:41:39;;;;;;;25.30;12.73;;;8.30;34.00;;;;;;5037340;28;20056;-91
2022/03/20 09:44:05;;;;;;;26.07;12.27;;;8.50;33.70;;;;;;5035970;28;20029;-91
2022/03/20 09:46:32;;;;;;;23.27;12.37;;;8.70;32.90;;;;;;5038094;28;20087;-92
2022/03/20 09:49:00;;;;;;;26.87;13.40;;;8.80;32.40;;;;;;5055799;28;20513;-91
2022/03/20 09:51:27;;;;;;;25.77;12.87;;;8.80;32.50;;;;;;5038478;28;20053;-92
2022/03/20 09:53:52;;;;;;;;;;;9.00;32.30;;;;;;5038474;28;20390;-92
2022/03/20 09:56:18;;;;;;;29.10;11.67;;;9.10;32.10;;;;;;5038610;28;19908;-92
2022/03/20 09:58:43;;;;;;;;;;;9.20;31.90;;;;;;5038603;28;20029;-92
2022/03/20 10:01:13;;;;;;;26.20;12.33;;;9.20;31.90;;;;;;5041732;28;19991;-91
2022/03/20 10:03:39;;;;;;;30.47;13.47;;;9.30;31.60;;;;;;5038568;28;20028;-92
2022/03/20 10:06:24;;;;;;;26.27;11.93;;;9.30;31.80;;;;;;5038124;28;20102;-92
2022/03/20 10:09:04;;;;;;;27.87;12.47;;;9.50;31.80;;;;;;5018900;28;20060;-92
2022/03/20 10:11:30;;;;;;;24.83;13.13;;;9.60;31.50;;;;;;5039023;28;20025;-92
2022/03/20 10:14:10;;;;;;;;;;;9.80;31.60;;;;;;5042481;28;20033;-92
2022/03/20 10:16:50;;;;;;;27.40;11.80;;;10.00;31.60;;;;;;5042710;28;19909;-92
2022/03/20 10:19:22;;;;;;;20.43;9.23;;;10.20;31.20;;;;;;5041706;28;20032;-91
2022/03/20 10:21:58;;;;;;;27.23;12.65;;;10.70;30.80;;;;;;5042690;28;20371;-92
2022/03/20 10:24:25;;;;;;;;;;;11.70;29.30;;;;;;5045561;28;20031;-92
2022/03/20 10:26:59;;;;;;;24.15;13.00;;;13.10;28.60;;;;;;5042146;28;19977;-92
2022/03/20 10:30:12;;;;;;;22.70;12.73;;;14.50;26.40;;;;;;5043194;28;20100;-92
2022/03/20 10:32:48;;;;;;;29.08;12.75;;;15.70;25.70;;;;;;4980801;28;20126;-93
2022/03/20 10:35:14;;;;;;;26.08;12.90;;;16.90;24.70;;;;;;5049099;28;20056;-87
2022/03/20 10:37:54;;;;;;;21.02;10.23;;;17.60;23.50;;;;;;5038614;28;20032;-88
2022/03/20 10:40:27;;;;;;;23.42;13.38;;;18.30;23.20;;;;;;5039366;28;20067;-88
2022/03/20 10:43:15;;;;;;;24.85;13.95;;;19.10;22.70;;;;;;5039280;28;20021;-88
2022/03/20 10:46:00;;;;;;;23.77;13.23;;;19.90;21.40;;;;;;5039766;28;20439;-87
2022/03/20 10:48:42;;;;;;;21.88;12.18;;;20.80;20.70;;;;;;5057434;28;20053;-88
2022/03/20 10:51:08;;;;;;;20.77;12.43;;;21.50;20.00;;;;;;5023295;28;20417;-88
2022/03/20 10:53:35;;;;;;;19.65;11.80;;;22.10;19.70;;;;;;5038883;28;20037;-88
2022/03/20 10:56:08;;;;;;;21.48;11.60;;;22.80;19.00;;;;;;5038907;28;20095;-88
2022/03/20 10:58:40;;;;;;;19.10;13.05;;;23.40;17.90;;;;;;5039376;28;20031;-88
2022/03/20 11:01:08;;;;;;;24.17;13.05;;;23.80;17.70;;;;;;5039292;28;20067;-88
2022/03/20 11:03:38;;;;;;;22.17;13.15;;;24.20;17.30;;;;;;5039194;28;20025;-88
2022/03/20 11:06:08;;;;;;;19.35;11.57;;;24.50;16.40;;;;;;5039180;28;20029;-88
2022/03/20 11:08:33;;;;;;;18.73;11.15;;;24.50;16.60;;;;;;5039021;28;20060;-88
2022/03/20 11:11:00;;;;;;;21.77;12.48;;;24.90;16.20;;;;;;5039096;28;20037;-88
2022/03/20 11:13:52;;;;;;;21.17;11.23;;;25.30;16.20;;;;;;5036255;28;20033;-88
2022/03/20 11:16:29;;;;;;;17.27;10.45;;;25.80;15.80;;;;;;5039326;28;20116;-88
2022/03/20 11:19:20;;;;;;;;;;;;;;;;;;;;;
2022/03/20 11:22:15;;;;;;;17.55;9.35;;;26.40;15.10;;;;;;5056478;28;20088;-89
2022/03/20 11:25:24;;;;;;;15.50;10.57;;;26.40;14.70;;;;;;5038836;28;20478;-89
2022/03/20 11:46:01;;;;;;;17.58;10.07;;;28.30;13.30;;;;;;4976280;28;20482;-89
2022/03/20 11:48:27;;;;;;;13.15;9.13;;;28.20;13.10;;;;;;4975649;28;20066;-87
2022/03/20 11:50:53;;;;;;;13.38;9.25;;;28.70;13.30;;;;;;4969949;28;20035;-88
2022/03/20 11:53:29;;;;;;;17.05;9.55;;;29.30;13.10;;;;;;4990779;28;20041;-88
2022/03/20 11:55:55;;;;;;;12.43;8.55;;;29.80;12.50;;;;;;5035694;28;20044;-88
2022/03/20 11:58:21;;;;;;;13.98;7.65;;;30.10;12.40;;;;;;5035188;28;20025;-89
2022/03/20 12:01:06;;;;;;;14.07;9.10;;;30.40;12.10;;;;;;5028497;28;20064;-89
2022/03/20 12:03:54;;;;;;;11.90;7.37;;;30.20;11.90;;;;;;5032016;28;20073;-87
2022/03/20 12:06:59;;;;;;;12.75;8.00;;;29.80;12.10;;;;;;5038892;28;20053;-88
2022/03/20 12:09:36;;;;;;;14.73;8.00;;;29.70;12.20;;;;;;5035942;28;20044;-87
2022/03/20 12:12:11;;;;;;;13.10;7.75;;;29.90;11.90;;;;;;5029330;28;20506;-88
2022/03/20 12:15:26;;;;;;;12.52;8.18;;;29.80;11.50;;;;;;5037698;28;20064;-87
2022/03/20 12:18:24;;;;;;;12.05;7.40;;;29.80;11.80;;;;;;5032377;28;20120;-88
2022/03/20 12:21:02;;;;;;;12.23;7.78;;;30.20;11.90;;;;;;5000759;28;20068;-87
2022/03/20 12:30:30;;;;;;;11.70;7.45;;;30.30;11.50;;;;;;5056185;28;20028;-87
2022/03/20 12:32:58;;;;;;;13.77;7.68;;;30.50;11.50;;;;;;5034435;28;20060;-89
2022/03/20 12:35:54;;;;;;;11.95;7.35;;;30.60;11.20;;;;;;5037782;28;20071;-88
2022/03/20 12:42:24;;;;;;;10.45;7.15;;;30.60;11.30;;;;;;5016312;28;20024;-87
2022/03/20 12:45:04;;;;;;;9.57;6.47;;;30.70;11.30;;;;;;4994382;28;20507;-85
2022/03/20 12:47:30;;;;;;;9.60;6.53;;;30.70;10.80;;;;;;5029512;28;20458;-88
2022/03/20 12:50:12;;;;;;;8.82;6.07;;;30.40;10.90;;;;;;5021972;28;20025;-88
2022/03/20 13:02:51;;;;;;;13.73;6.60;;;31.10;10.60;;;;;;5055395;28;20070;-88
2022/03/20 13:05:25;;;;;;;9.95;6.22;;;31.00;10.70;;;;;;5037089;28;20394;-89
2022/03/20 13:08:00;;;;;;;10.15;6.82;;;31.10;10.60;;;;;;5036947;28;20037;-88
2022/03/20 13:13:56;;;;;;;11.25;6.60;;;31.30;10.60;;;;;;5015971;28;20033;-87
2022/03/20 13:16:24;;;;;;;8.90;6.53;;;31.30;10.60;;;;;;5014290;28;20022;-87
2022/03/20 13:19:32;;;;;;;;;;;;;;;;;;;;;
2022/03/20 13:21:50;;;;;;;8.65;6.15;;;30.70;10.30;;;;;;5036307;28;20098;-87
2022/03/20 13:24:27;;;;;;;9.15;6.28;;;30.10;10.40;;;;;;5028392;28;20079;-88
2022/03/20 13:26:57;;;;;;;9.30;6.40;;;29.70;10.60;;;;;;5018472;28;20086;-88
2022/03/20 13:29:23;;;;;;;9.13;6.03;;;29.70;10.60;;;;;;5018293;28;20017;-87
2022/03/20 13:32:10;;;;;;;8.70;6.25;;;29.70;10.50;;;;;;5026380;28;20063;-88
2022/03/20 13:34:46;;;;;;;9.20;6.30;;;29.40;10.50;;;;;;5035039;28;20048;-88
2022/03/20 13:37:14;;;;;;;8.80;5.90;;;29.10;10.60;;;;;;5033979;28;20044;-89
2022/03/20 13:39:48;;;;;;;8.20;5.70;;;28.90;10.70;;;;;;5027082;28;20375;-88
2022/03/20 13:42:15;;;;;;;9.30;5.70;;;29.00;10.90;;;;;;5017509;28;20022;-87
2022/03/20 13:44:47;;;;;;;10.82;6.70;;;29.20;10.70;;;;;;5027056;28;20469;-87
2022/03/20 13:47:15;;;;;;;8.82;6.15;;;28.90;10.70;;;;;;5034761;28;20026;-88
2022/03/20 13:49:41;;;;;;;9.18;6.35;;;28.70;10.70;;;;;;5031108;28;20025;-89
2022/03/20 13:52:16;;;;;;;8.13;5.72;;;28.70;10.80;;;;;;5041094;28;20028;-87
2022/03/20 13:55:04;;;;;;;7.47;5.85;;;28.50;10.90;;;;;;5022124;28;20026;-88
2022/03/20 13:57:32;;;;;;;8.90;6.65;;;28.30;11.10;;;;;;5036004;28;20057;-88
2022/03/20 14:00:10;;;;;;;9.18;6.63;;;28.30;11.20;;;;;;5029399;28;20026;-87
2022/03/20 14:02:46;;;;;;;9.85;6.10;;;28.30;11.20;;;;;;5021194;28;20037;-88
2022/03/20 14:05:24;;;;;;;9.13;6.28;;;28.20;11.20;;;;;;5021115;28;20074;-89
2022/03/20 14:08:02;;;;;;;10.30;6.53;;;28.10;11.00;;;;;;5026856;28;20025;-88
2022/03/20 14:13:52;;;;;;;7.88;5.78;;;27.50;11.20;;;;;;5047625;28;20115;-87